Time;durP1;ratioP1;P1;durP2;ratioP2;P2;SDS_P1;SDS_P2;PMS_P1;PMS_P2;Temp;Humidity;BMP_temperature;BMP_pressure;BME280_temperature;BME280_humidity;BME280_pressure;Samples;Min_cycle;Max_cycle;Signal;HPM_P1;HPM_P2
2023/10/27 00:06:07;;;;;;;2.4;1.3;;;;;;;12.04;89.29;;;;;
2023/10/27 00:17:07;;;;;;;3.2;1.2;;;;;;;12.09;89.13;;;;;
2023/10/27 00:28:07;;;;;;;3.2;1.2;;;;;;;12.14;89.06;;;;;
2023/10/27 00:39:07;;;;;;;3.2;1.2;;;;;;;12.29;88.5;;;;;
2023/10/27 00:50:07;;;;;;;1.3;0.8;;;;;;;12.24;88.27;;;;;
2023/10/27 01:01:07;;;;;;;1.3;0.8;;;;;;;12.23;87.96;;;;;
2023/10/27 01:12:07;;;;;;;1.3;0.8;;;;;;;12.28;87.18;;;;;
2023/10/27 01:22:06;;;;;;;3.6;1.2;;;;;;;12.04;87.89;;;;;
2023/10/27 01:33:06;;;;;;;3.6;1.2;;;;;;;11.76;87.28;;;;;
2023/10/27 01:43:07;;;;;;;3.6;1.2;;;;;;;11.58;86.11;;;;;
2023/10/27 01:53:07;;;;;;;2.6;1.1;;;;;;;11.07;86.08;;;;;
2023/10/27 02:03:07;;;;;;;2.6;1.1;;;;;;;10.81;86.35;;;;;
2023/10/27 02:14:07;;;;;;;2.6;1.1;;;;;;;10.51;88.13;;;;;
2023/10/27 02:24:07;;;;;;;1.8;1;;;;;;;10.39;89.04;;;;;
2023/10/27 02:35:07;;;;;;;1.8;1;;;;;;;10.21;90.1;;;;;
2023/10/27 02:45:07;;;;;;;1.8;1;;;;;;;10.24;90.1;;;;;
2023/10/27 02:56:07;;;;;;;2.3;1.3;;;;;;;10.15;89.8;;;;;
2023/10/27 03:06:07;;;;;;;2.3;1.3;;;;;;;10.06;89.62;;;;;
2023/10/27 03:16:07;;;;;;;3.3;1.4;;;;;;;9.99;90.1;;;;;
2023/10/27 03:26:07;;;;;;;3.3;1.4;;;;;;;9.94;90.17;;;;;
2023/10/27 03:37:07;;;;;;;3.3;1.4;;;;;;;9.9;90.28;;;;;
2023/10/27 03:48:07;;;;;;;3.2;1.5;;;;;;;9.89;90.78;;;;;
2023/10/27 03:59:07;;;;;;;3.2;1.5;;;;;;;9.76;89.62;;;;;
2023/10/27 04:09:07;;;;;;;3.2;1.5;;;;;;;9.71;89.75;;;;;
2023/10/27 04:20:07;;;;;;;5.2;2.2;;;;;;;9.77;89.76;;;;;
2023/10/27 04:31:07;;;;;;;5.2;2.2;;;;;;;9.75;89.46;;;;;
2023/10/27 04:41:07;;;;;;;5.2;2.2;;;;;;;9.84;89.3;;;;;
2023/10/27 04:52:07;;;;;;;4.7;2.4;;;;;;;9.82;89.07;;;;;
2023/10/27 05:02:07;;;;;;;4.7;2.4;;;;;;;9.84;88.53;;;;;
2023/10/27 05:12:07;;;;;;;4.7;2.4;;;;;;;9.66;89.08;;;;;
2023/10/27 05:22:07;;;;;;;6.2;3.2;;;;;;;9.75;89.34;;;;;
2023/10/27 05:33:07;;;;;;;6.2;3.2;;;;;;;9.75;89.79;;;;;
2023/10/27 05:44:07;;;;;;;6.2;3.2;;;;;;;9.96;89.59;;;;;
2023/10/27 05:54:07;;;;;;;5.3;2.3;;;;;;;10.11;89.35;;;;;
2023/10/27 06:04:07;;;;;;;5.3;2.3;;;;;;;10.11;89.36;;;;;
2023/10/27 06:14:07;;;;;;;5.3;2.3;;;;;;;10.28;89.6;;;;;
2023/10/27 06:24:07;;;;;;;5.4;2.7;;;;;;;10.48;89.63;;;;;
2023/10/27 06:34:07;;;;;;;5.4;2.7;;;;;;;10.69;89.56;;;;;
2023/10/27 06:45:08;;;;;;;5.4;2.7;;;;;;;10.94;88.93;;;;;
2023/10/27 06:55:07;;;;;;;4.2;2.3;;;;;;;11.12;88.53;;;;;
2023/10/27 07:05:08;;;;;;;4.2;2.3;;;;;;;11.33;88.41;;;;;
2023/10/27 07:16:07;;;;;;;7.3;3.5;;;;;;;11.29;88.16;;;;;
2023/10/27 07:27:07;;;;;;;7.3;3.5;;;;;;;11.16;88.75;;;;;
2023/10/27 07:38:07;;;;;;;7.3;3.5;;;;;;;11.36;88.92;;;;;
2023/10/27 07:48:07;;;;;;;6.2;3.7;;;;;;;11.64;88.72;;;;;
2023/10/27 07:58:07;;;;;;;6.2;3.7;;;;;;;11.63;88.07;;;;;
2023/10/27 08:09:07;;;;;;;6.2;3.7;;;;;;;12.11;87.7;;;;;
2023/10/27 08:20:07;;;;;;;8.6;4.6;;;;;;;12.32;86.37;;;;;
2023/10/27 08:31:07;;;;;;;8.6;4.6;;;;;;;12.27;86.9;;;;;
2023/10/27 08:41:07;;;;;;;8.6;4.6;;;;;;;12.35;87;;;;;
2023/10/27 08:52:07;;;;;;;8.3;4.4;;;;;;;12.33;86.83;;;;;
2023/10/27 09:02:07;;;;;;;8.3;4.4;;;;;;;12.34;87;;;;;
2023/10/27 09:13:09;;;;;;;8.3;4.4;;;;;;;12.49;87.21;;;;;
2023/10/27 09:23:07;;;;;;;7.6;4.7;;;;;;;12.33;87.54;;;;;
2023/10/27 09:33:07;;;;;;;7.6;4.7;;;;;;;12.11;88.6;;;;;
2023/10/27 09:44:07;;;;;;;7.6;4.7;;;;;;;12.36;88.13;;;;;
2023/10/27 09:54:07;;;;;;;7.4;3.9;;;;;;;12.12;88.39;;;;;
2023/10/27 10:04:07;;;;;;;7.4;3.9;;;;;;;12.06;88.81;;;;;
2023/10/27 10:15:07;;;;;;;7.4;3.9;;;;;;;12.09;89.3;;;;;
2023/10/27 10:25:07;;;;;;;7.1;4.8;;;;;;;11.96;89.23;;;;;
2023/10/27 10:35:07;;;;;;;7.1;4.8;;;;;;;11.81;89.76;;;;;
2023/10/27 10:46:07;;;;;;;7.8;4.9;;;;;;;11.99;89.12;;;;;
2023/10/27 10:57:08;;;;;;;7.8;4.9;;;;;;;11.87;89.65;;;;;
2023/10/27 11:07:07;;;;;;;7.8;4.9;;;;;;;11.96;90.03;;;;;
2023/10/27 11:18:07;;;;;;;7.5;5;;;;;;;11.9;90.11;;;;;
2023/10/27 11:28:07;;;;;;;7.5;5;;;;;;;11.71;90.88;;;;;
2023/10/27 11:38:07;;;;;;;7.5;5;;;;;;;11.7;90.97;;;;;
2023/10/27 11:49:07;;;;;;;8;5.4;;;;;;;11.78;90.89;;;;;
2023/10/27 11:59:07;;;;;;;8;5.4;;;;;;;11.72;90.97;;;;;
2023/10/27 12:10:09;;;;;;;8;5.4;;;;;;;11.87;90.73;;;;;
2023/10/27 12:21:07;;;;;;;9.5;6.6;;;;;;;11.78;90.98;;;;;
2023/10/27 12:31:07;;;;;;;9.5;6.6;;;;;;;11.79;91.19;;;;;
2023/10/27 12:42:07;;;;;;;9.5;6.6;;;;;;;11.76;91.69;;;;;
2023/10/27 12:53:08;;;;;;;9.7;5.6;;;;;;;11.86;91.82;;;;;
2023/10/27 13:03:07;;;;;;;9.7;5.6;;;;;;;11.95;91.99;;;;;
2023/10/27 13:14:08;;;;;;;9.7;5.6;;;;;;;12.07;91.77;;;;;
2023/10/27 13:25:07;;;;;;;10.2;6.9;;;;;;;12.16;91.58;;;;;
2023/10/27 13:35:07;;;;;;;10.2;6.9;;;;;;;12.34;91.28;;;;;
2023/10/27 13:45:07;;;;;;;10.2;6.9;;;;;;;12.48;90.96;;;;;
2023/10/27 13:56:07;;;;;;;10.1;7.8;;;;;;;12.67;90.22;;;;;
2023/10/27 14:06:08;;;;;;;10.1;7.8;;;;;;;12.74;89.79;;;;;
2023/10/27 14:16:07;;;;;;;10.9;7;;;;;;;12.65;89.9;;;;;
2023/10/27 14:27:07;;;;;;;10.9;7;;;;;;;12.71;89.76;;;;;
2023/10/27 14:37:08;;;;;;;10.9;7;;;;;;;12.66;89.48;;;;;
2023/10/27 14:48:07;;;;;;;10.6;6.4;;;;;;;12.58;89.54;;;;;
2023/10/27 14:58:07;;;;;;;10.6;6.4;;;;;;;12.55;89.65;;;;;
2023/10/27 15:08:07;;;;;;;10.6;6.4;;;;;;;12.55;89.63;;;;;
2023/10/27 15:19:08;;;;;;;7.3;4.6;;;;;;;12.49;89.85;;;;;
2023/10/27 15:29:07;;;;;;;7.3;4.6;;;;;;;12.45;89.87;;;;;
2023/10/27 15:39:08;;;;;;;7.3;4.6;;;;;;;12.28;90.46;;;;;
2023/10/27 15:49:07;;;;;;;8.5;5.1;;;;;;;12.25;90.51;;;;;
2023/10/27 15:59:07;;;;;;;8.5;5.1;;;;;;;12.17;90.57;;;;;
2023/10/27 16:10:08;;;;;;;8.5;5.1;;;;;;;12.02;90.92;;;;;
2023/10/27 16:21:07;;;;;;;9.6;5.5;;;;;;;11.99;90.78;;;;;
2023/10/27 16:32:07;;;;;;;9.6;5.5;;;;;;;12.02;90.9;;;;;
2023/10/27 16:43:07;;;;;;;9.6;5.5;;;;;;;11.97;91.19;;;;;
2023/10/27 16:54:07;;;;;;;10.7;6.9;;;;;;;11.91;91.04;;;;;
2023/10/27 17:04:07;;;;;;;10.7;6.9;;;;;;;11.88;91.29;;;;;
2023/10/27 17:15:07;;;;;;;10.6;7.5;;;;;;;11.73;91.58;;;;;
2023/10/27 17:25:10;;;;;;;10.6;7.5;;;;;;;11.68;91.48;;;;;
2023/10/27 17:36:09;;;;;;;10.6;7.5;;;;;;;11.59;91.51;;;;;
2023/10/27 17:47:07;;;;;;;12.7;8;;;;;;;11.53;91.27;;;;;
2023/10/27 17:57:08;;;;;;;12.7;8;;;;;;;11.34;90.78;;;;;
2023/10/27 18:08:07;;;;;;;12.7;8;;;;;;;11.26;90.74;;;;;
2023/10/27 18:19:08;;;;;;;9.8;5.7;;;;;;;11.07;90.7;;;;;
2023/10/27 18:29:08;;;;;;;9.8;5.7;;;;;;;11;90.73;;;;;
2023/10/27 18:40:07;;;;;;;9.8;5.7;;;;;;;11.01;90.77;;;;;
2023/10/27 18:50:08;;;;;;;9.2;5.8;;;;;;;11.01;90.76;;;;;
2023/10/27 19:01:07;;;;;;;9.2;5.8;;;;;;;11.07;90.8;;;;;
2023/10/27 19:11:07;;;;;;;9.2;5.8;;;;;;;10.92;90.71;;;;;
2023/10/27 19:21:09;;;;;;;13;8.2;;;;;;;10.79;90.98;;;;;
2023/10/27 19:32:07;;;;;;;13;8.2;;;;;;;10.66;91.18;;;;;
2023/10/27 19:43:07;;;;;;;13;8.2;;;;;;;10.52;90.99;;;;;
2023/10/27 19:53:10;;;;;;;11.7;7.3;;;;;;;10.38;91.57;;;;;
2023/10/27 20:04:08;;;;;;;11.7;7.3;;;;;;;10.53;91.37;;;;;
2023/10/27 20:15:09;;;;;;;11.7;7.3;;;;;;;10.55;91.3;;;;;
2023/10/27 20:25:07;;;;;;;;;;;;;;;;;;;;;
2023/10/27 20:36:07;;;;;;;12;7.1;;;;;;;10.58;91.05;;;;;
2023/10/27 20:47:07;;;;;;;11.1;7.8;;;;;;;10.5;91.34;;;;;
2023/10/27 20:58:07;;;;;;;11.1;7.8;;;;;;;10.57;91.06;;;;;
2023/10/27 21:08:07;;;;;;;11.1;7.8;;;;;;;10.67;90.95;;;;;
2023/10/27 21:18:08;;;;;;;12.1;8.5;;;;;;;10.69;91.12;;;;;
2023/10/27 21:29:07;;;;;;;12.1;8.5;;;;;;;10.73;90.97;;;;;
2023/10/27 21:40:07;;;;;;;12.1;8.5;;;;;;;10.75;91.07;;;;;
2023/10/27 21:50:07;;;;;;;13.2;8.4;;;;;;;10.82;90.97;;;;;
2023/10/27 22:01:08;;;;;;;13.2;8.4;;;;;;;10.8;90.97;;;;;
2023/10/27 22:12:08;;;;;;;13.2;8.4;;;;;;;10.91;90.55;;;;;
2023/10/27 22:23:07;;;;;;;13.7;9.2;;;;;;;10.77;90.33;;;;;
2023/10/27 22:33:07;;;;;;;13.7;9.2;;;;;;;10.75;89.61;;;;;
2023/10/27 22:44:07;;;;;;;13.7;9.2;;;;;;;10.77;89.32;;;;;
2023/10/27 22:55:07;;;;;;;7.9;4.1;;;;;;;10.61;89.11;;;;;
2023/10/27 23:06:07;;;;;;;7.9;4.1;;;;;;;10.63;89.03;;;;;
2023/10/27 23:17:07;;;;;;;7.1;3.2;;;;;;;10.56;88.85;;;;;
2023/10/27 23:27:07;;;;;;;7.1;3.2;;;;;;;10.52;88.83;;;;;
2023/10/27 23:37:10;;;;;;;7.1;3.2;;;;;;;10.53;88.62;;;;;
2023/10/27 23:48:07;;;;;;;7;3.2;;;;;;;10.56;88.76;;;;;
2023/10/27 23:58:08;;;;;;;7;3.2;;;;;;;10.56;88.9;;;;;
